createdAt,value
2023-01-31T00:02:22.692Z,99244.97
2023-01-31T00:06:50.892Z,99232.94
2023-01-31T00:10:53.060Z,99254.44
2023-01-31T00:14:54.936Z,99254.44
2023-01-31T00:18:56.960Z,99255.06
2023-01-31T00:22:58.899Z,99256.91
2023-01-31T00:27:00.825Z,99254.59
2023-01-31T00:31:02.680Z,99265.78
2023-01-31T00:35:05.248Z,99271.13
2023-01-31T00:39:08.149Z,99275.53
2023-01-31T00:43:10.171Z,99262.63
2023-01-31T00:47:12.052Z,99272.03
2023-01-31T00:51:14.528Z,99288.94
2023-01-31T00:55:16.624Z,99305.19
2023-01-31T00:59:18.843Z,99306.69
2023-01-31T01:03:20.862Z,99305.72
2023-01-31T01:07:22.923Z,99306.97
2023-01-31T01:11:31.137Z,99314.03
2023-01-31T01:15:36.829Z,99320.25
2023-01-31T01:19:38.904Z,99318.38
2023-01-31T01:23:41.577Z,99322.66
2023-01-31T01:27:43.529Z,99320.88
2023-01-31T01:31:46.708Z,99323.88
2023-01-31T01:35:48.686Z,99337.00
2023-01-31T01:39:52.310Z,99339.66
2023-01-31T01:43:57.296Z,99336.25
2023-01-31T01:48:03.713Z,99331.81
2023-01-31T01:52:09.919Z,99343.56
2023-01-31T01:56:21.813Z,99346.44
2023-01-31T02:00:28.637Z,99363.31
2023-01-31T02:04:38.802Z,99365.75
2023-01-31T02:08:42.577Z,99380.56
2023-01-31T02:12:46.342Z,99383.50
2023-01-31T02:16:48.308Z,99395.66
2023-01-31T02:21:27.465Z,99408.50
2023-01-31T02:25:49.084Z,99415.13
2023-01-31T02:30:38.293Z,99425.75
2023-01-31T02:35:24.920Z,99430.72
2023-01-31T02:39:46.708Z,99443.06
2023-01-31T02:44:16.174Z,99440.53
2023-01-31T02:48:33.485Z,99444.00
2023-01-31T02:52:40.986Z,99459.50
2023-01-31T02:56:47.270Z,99467.75
2023-01-31T03:00:50.919Z,99485.16
2023-01-31T03:04:53.222Z,99490.09
2023-01-31T03:09:04.452Z,99508.06
2023-01-31T03:13:28.089Z,99517.50
2023-01-31T03:17:51.377Z,99536.97
2023-01-31T03:22:00.511Z,99525.81
2023-01-31T03:26:06.417Z,99542.78
2023-01-31T03:30:14.005Z,99553.75
2023-01-31T03:34:17.720Z,99559.28
2023-01-31T03:38:35.099Z,99567.25
2023-01-31T03:42:45.447Z,99577.97
2023-01-31T03:46:55.356Z,99581.28
2023-01-31T03:51:01.479Z,99577.66
2023-01-31T03:55:46.571Z,99586.47
2023-01-31T03:59:54.745Z,99591.03
2023-01-31T04:03:59.544Z,99583.88
2023-01-31T04:08:02.152Z,99598.38
2023-01-31T04:12:06.624Z,99612.03
2023-01-31T04:16:08.776Z,99595.06
2023-01-31T04:20:13.088Z,99610.38
2023-01-31T04:24:15.054Z,99623.88
2023-01-31T04:28:17.088Z,99624.22
2023-01-31T04:32:19.090Z,99632.72
2023-01-31T04:36:21.044Z,99661.31
2023-01-31T04:40:23.192Z,99649.06
2023-01-31T04:44:25.087Z,99656.25
2023-01-31T04:48:28.986Z,99661.16
2023-01-31T04:52:31.730Z,99668.44
2023-01-31T04:56:34.019Z,99676.41
2023-01-31T05:00:36.569Z,99685.06
2023-01-31T05:04:38.609Z,99673.50
2023-01-31T05:08:40.297Z,99694.72
2023-01-31T05:12:42.233Z,99685.84
2023-01-31T05:16:47.166Z,99692.84
2023-01-31T05:20:50.178Z,99716.44
2023-01-31T05:24:52.367Z,99721.69
2023-01-31T05:28:54.382Z,99723.28
2023-01-31T05:32:56.583Z,99745.75
2023-01-31T05:36:59.374Z,99747.97
2023-01-31T05:41:01.820Z,99771.47
2023-01-31T05:45:04.423Z,99769.53
2023-01-31T05:49:06.528Z,99774.78
2023-01-31T05:53:09.431Z,99773.75
2023-01-31T05:57:11.480Z,99786.66
2023-01-31T06:01:13.397Z,99787.75
2023-01-31T06:05:15.758Z,99800.41
2023-01-31T06:09:17.677Z,99798.69
2023-01-31T06:13:19.579Z,99810.09
2023-01-31T06:17:24.058Z,99815.22
2023-01-31T06:21:26.006Z,99831.97
2023-01-31T06:25:28.025Z,99846.53
2023-01-31T06:29:30.534Z,99854.13
2023-01-31T06:33:44.739Z,99851.41
2023-01-31T06:37:48.648Z,99866.50
2023-01-31T06:41:50.636Z,99873.78
2023-01-31T06:45:52.702Z,99878.88
2023-01-31T06:49:54.526Z,99894.97
2023-01-31T06:53:56.876Z,99894.66
2023-01-31T06:57:59.000Z,99899.34
2023-01-31T07:02:00.946Z,99898.22
2023-01-31T07:06:03.884Z,99911.38
2023-01-31T07:10:06.567Z,99925.72
2023-01-31T07:14:08.634Z,99929.78
2023-01-31T07:18:12.266Z,99939.69
2023-01-31T07:22:14.329Z,99946.44
2023-01-31T07:26:16.821Z,99956.41
2023-01-31T07:30:19.150Z,99954.00
2023-01-31T07:34:23.109Z,99971.03
2023-01-31T07:38:25.129Z,99964.63
2023-01-31T07:42:34.706Z,99972.69
2023-01-31T07:46:42.146Z,99973.94
2023-01-31T07:50:45.591Z,99976.50
2023-01-31T07:54:47.648Z,99975.34
2023-01-31T07:58:50.548Z,99987.06
2023-01-31T08:03:11.009Z,99993.59
2023-01-31T08:07:13.003Z,99991.94
2023-01-31T08:11:15.212Z,100010.75
2023-01-31T08:15:17.206Z,100018.47
2023-01-31T08:19:19.204Z,100021.19
2023-01-31T08:23:21.117Z,100028.25
2023-01-31T08:27:23.120Z,100040.59
2023-01-31T08:31:26.762Z,100045.25
2023-01-31T08:35:29.297Z,100045.16
2023-01-31T08:39:31.373Z,100051.84
2023-01-31T08:43:42.268Z,100055.56
2023-01-31T08:47:47.895Z,100064.19
2023-01-31T08:51:49.871Z,100070.50
2023-01-31T08:55:51.880Z,100080.03
2023-01-31T08:59:53.900Z,100076.16
2023-01-31T09:03:57.315Z,100071.16
2023-01-31T09:07:59.480Z,100082.50
2023-01-31T09:12:03.685Z,100092.94
2023-01-31T09:16:11.364Z,100092.97
2023-01-31T09:20:13.404Z,100087.88
2023-01-31T09:24:15.463Z,100097.31
2023-01-31T09:28:17.507Z,100095.69
2023-01-31T09:32:21.263Z,100104.41
2023-01-31T09:36:24.900Z,100116.09
2023-01-31T09:40:32.490Z,100110.16
2023-01-31T09:44:42.102Z,100115.34
2023-01-31T09:48:48.082Z,100115.16
2023-01-31T09:52:50.368Z,100120.72
2023-01-31T09:57:01.373Z,100134.66
2023-01-31T10:01:19.828Z,100121.38
2023-01-31T10:05:39.660Z,100131.97
2023-01-31T10:09:51.891Z,100119.34
2023-01-31T10:13:58.606Z,100119.78
2023-01-31T10:18:09.397Z,100124.25
2023-01-31T10:22:19.303Z,100126.25
2023-01-31T10:26:30.369Z,100117.75
2023-01-31T10:30:51.944Z,100123.63
2023-01-31T10:34:59.101Z,100129.53
2023-01-31T10:39:07.570Z,100126.72
2023-01-31T10:43:20.245Z,100122.31
2023-01-31T10:47:31.523Z,100132.34
2023-01-31T10:51:52.807Z,100121.31
2023-01-31T10:56:04.226Z,100125.41
2023-01-31T11:00:07.309Z,100115.94
2023-01-31T11:04:24.343Z,100126.41
2023-01-31T11:08:53.428Z,100126.31
2023-01-31T11:13:01.908Z,100126.97
2023-01-31T11:17:14.814Z,100130.94
2023-01-31T11:21:24.685Z,100141.00
2023-01-31T11:25:28.756Z,100133.50
2023-01-31T11:29:38.141Z,100137.38
2023-01-31T11:33:45.188Z,100130.34
2023-01-31T11:37:54.241Z,100117.69
2023-01-31T11:41:56.341Z,100114.56
2023-01-31T11:46:04.189Z,100118.59
2023-01-31T11:50:07.414Z,100121.59
2023-01-31T11:54:18.290Z,100124.25
2023-01-31T11:58:32.246Z,100119.47
2023-01-31T12:02:41.741Z,100130.41
2023-01-31T12:06:56.673Z,100128.56
2023-01-31T12:11:00.169Z,100115.09
2023-01-31T12:15:14.980Z,100109.13
2023-01-31T12:19:30.160Z,100100.63
2023-01-31T12:23:50.568Z,100100.19
2023-01-31T12:28:17.436Z,100111.44
2023-01-31T12:32:53.486Z,100093.47
2023-01-31T12:37:22.085Z,100099.88
2023-01-31T12:41:39.482Z,100092.91
2023-01-31T12:45:46.228Z,100080.41
2023-01-31T12:49:57.667Z,100073.72
2023-01-31T12:54:16.769Z,100070.84
2023-01-31T12:58:33.763Z,100072.69
2023-01-31T13:03:00.021Z,100078.88
2023-01-31T13:07:12.652Z,100081.97
2023-01-31T13:11:26.789Z,100075.75
2023-01-31T13:15:42.412Z,100069.69
2023-01-31T13:19:53.655Z,100075.03
2023-01-31T13:24:01.941Z,100075.16
2023-01-31T13:28:32.245Z,100077.72
2023-01-31T13:32:48.557Z,100068.31
2023-01-31T13:37:02.105Z,100060.69
2023-01-31T13:41:05.350Z,100059.97
2023-01-31T13:45:11.167Z,100057.63
2023-01-31T13:49:48.690Z,100061.16
2023-01-31T13:53:56.245Z,100053.72
2023-01-31T13:58:05.059Z,100066.41
2023-01-31T14:02:18.243Z,100059.47
2023-01-31T14:06:20.251Z,100075.13
2023-01-31T14:10:29.105Z,100075.78
2023-01-31T14:14:37.391Z,100079.75
2023-01-31T14:18:44.637Z,100078.56
2023-01-31T14:23:24.970Z,100074.75
2023-01-31T14:27:42.898Z,100070.88
2023-01-31T14:31:46.889Z,100070.88
2023-01-31T14:36:19.506Z,100080.63
2023-01-31T14:40:30.475Z,100086.41
2023-01-31T14:44:51.859Z,100076.53
2023-01-31T14:49:09.191Z,100077.22
2023-01-31T14:53:41.400Z,100079.88
2023-01-31T14:57:46.722Z,100077.41
2023-01-31T15:01:49.220Z,100074.16
2023-01-31T15:06:09.237Z,100061.94
2023-01-31T15:10:49.901Z,100069.63
2023-01-31T15:14:52.469Z,100066.09
2023-01-31T15:19:01.309Z,100071.28
2023-01-31T15:23:09.006Z,100054.31
2023-01-31T15:27:19.477Z,100066.53
2023-01-31T15:31:41.099Z,100053.31
2023-01-31T15:35:53.258Z,100054.22
2023-01-31T15:40:01.142Z,100068.50
2023-01-31T15:44:22.692Z,100056.97
2023-01-31T15:48:24.662Z,100073.63
2023-01-31T15:52:28.474Z,100053.91
2023-01-31T15:56:30.647Z,100048.41
2023-01-31T16:00:35.619Z,100046.84
2023-01-31T16:04:40.209Z,100054.59
2023-01-31T16:08:42.195Z,100058.47
2023-01-31T16:12:48.646Z,100055.47
2023-01-31T16:16:55.804Z,100067.38
2023-01-31T16:20:58.018Z,100075.16
2023-01-31T16:25:02.617Z,100061.03
2023-01-31T16:29:10.523Z,100065.44
2023-01-31T16:33:23.170Z,100066.31
2023-01-31T16:37:43.352Z,100057.16
2023-01-31T16:41:52.114Z,100050.66
2023-01-31T16:45:56.896Z,100047.75
2023-01-31T16:50:42.397Z,100044.59
2023-01-31T16:54:53.608Z,100044.53
2023-01-31T16:58:59.317Z,100040.38
2023-01-31T17:03:02.290Z,100035.88
2023-01-31T17:07:06.578Z,100029.63
2023-01-31T17:11:16.586Z,100012.94
2023-01-31T17:15:26.023Z,100006.47
2023-01-31T17:19:29.517Z,100002.88
2023-01-31T17:23:31.812Z,100001.53
2023-01-31T17:27:34.114Z,99996.22
2023-01-31T17:31:36.251Z,99986.84
2023-01-31T17:35:40.816Z,99985.63
2023-01-31T17:39:43.412Z,99980.44
2023-01-31T17:43:45.667Z,99977.91
2023-01-31T17:47:48.039Z,99966.69
2023-01-31T17:51:50.241Z,99962.53
2023-01-31T17:55:52.444Z,99954.75
2023-01-31T17:59:54.508Z,99942.56
2023-01-31T18:03:58.320Z,99931.88
2023-01-31T18:08:00.896Z,99927.47
2023-01-31T18:12:03.065Z,99913.88
2023-01-31T18:16:13.309Z,99908.09
2023-01-31T18:20:17.335Z,99902.97
2023-01-31T18:24:20.259Z,99892.66
2023-01-31T18:28:22.703Z,99897.09
2023-01-31T18:32:24.813Z,99883.50
2023-01-31T18:36:27.073Z,99877.59
2023-01-31T18:40:29.794Z,99868.22
2023-01-31T18:44:32.640Z,99855.16
2023-01-31T18:48:37.321Z,99838.69
2023-01-31T18:52:43.840Z,99832.63
2023-01-31T18:56:45.955Z,99816.06
2023-01-31T19:00:48.179Z,99813.91
2023-01-31T19:04:50.401Z,99800.09
2023-01-31T19:08:54.918Z,99795.81
2023-01-31T19:12:57.049Z,99777.34
2023-01-31T19:16:59.623Z,99762.84
2023-01-31T19:21:01.677Z,99743.97
2023-01-31T19:25:05.502Z,99727.22
2023-01-31T19:29:09.774Z,99712.38
2023-01-31T19:33:12.012Z,99696.59
2023-01-31T19:37:14.046Z,99675.91
2023-01-31T19:41:22.140Z,99664.03
2023-01-31T19:45:24.409Z,99653.84
2023-01-31T19:49:26.655Z,99631.91
2023-01-31T19:53:29.691Z,99619.31
2023-01-31T19:57:31.863Z,99613.53
2023-01-31T20:01:33.999Z,99605.94
2023-01-31T20:05:36.218Z,99597.13
2023-01-31T20:09:38.143Z,99579.41
2023-01-31T20:13:40.241Z,99571.06
2023-01-31T20:17:42.376Z,99560.75
2023-01-31T20:21:45.634Z,99551.66
2023-01-31T20:25:50.164Z,99537.91
2023-01-31T20:29:52.454Z,99531.94
2023-01-31T20:33:54.877Z,99530.19
2023-01-31T20:37:57.009Z,99523.56
2023-01-31T20:41:59.043Z,99508.59
2023-01-31T20:46:03.071Z,99497.91
2023-01-31T20:50:05.510Z,99495.63
2023-01-31T20:54:07.563Z,99488.09
2023-01-31T20:58:09.540Z,99480.28
2023-01-31T21:02:11.911Z,99475.44
2023-01-31T21:06:13.924Z,99469.00
2023-01-31T21:10:16.127Z,99457.81
2023-01-31T21:14:19.154Z,99457.81
2023-01-31T21:18:22.625Z,99448.19
2023-01-31T21:22:24.585Z,99435.56
2023-01-31T21:26:27.271Z,99425.00
2023-01-31T21:30:29.672Z,99415.88
2023-01-31T21:34:31.601Z,99405.34
2023-01-31T21:38:33.584Z,99400.94
2023-01-31T21:42:35.733Z,99397.19
2023-01-31T21:46:37.891Z,99389.22
2023-01-31T21:50:39.853Z,99374.88
2023-01-31T21:54:41.842Z,99363.88
2023-01-31T21:58:44.549Z,99359.88
2023-01-31T22:02:51.463Z,99357.06
2023-01-31T22:06:53.917Z,99351.25
2023-01-31T22:11:03.796Z,99350.91
2023-01-31T22:15:05.880Z,99345.81
2023-01-31T22:19:09.505Z,99341.56
2023-01-31T22:23:11.482Z,99353.88
2023-01-31T22:27:13.641Z,99331.72
2023-01-31T22:31:15.982Z,99339.47
2023-01-31T22:35:17.959Z,99335.28
2023-01-31T22:39:19.953Z,99341.31
2023-01-31T22:43:21.894Z,99326.75
2023-01-31T22:47:24.932Z,99330.09
2023-01-31T22:51:28.695Z,99328.53
2023-01-31T22:55:30.777Z,99314.75
2023-01-31T22:59:32.858Z,99312.75
2023-01-31T23:03:34.997Z,99304.78
2023-01-31T23:07:36.678Z,99297.47
2023-01-31T23:11:38.928Z,99289.16
2023-01-31T23:15:40.964Z,99292.78
2023-01-31T23:19:43.027Z,99284.59
2023-01-31T23:23:46.029Z,99268.56
2023-01-31T23:27:48.525Z,99271.00
2023-01-31T23:31:50.521Z,99266.72
2023-01-31T23:35:52.898Z,99263.16
2023-01-31T23:39:54.876Z,99261.31
2023-01-31T23:43:56.826Z,99261.88
2023-01-31T23:47:58.858Z,99252.25
2023-01-31T23:52:00.806Z,99244.97
2023-01-31T23:56:02.748Z,99244.69
